KCIC/CIC METAR and TAF weather

Enter ICAO airport designator
Station Type Date Time Source
KCIC METAR 2020/07/02 17:51 UTC NOAA

KCIC 021751Z 19005KT 80SM FEW100 25/12 A2984


Station Type Date Time Source
KCIC Decoded METAR 2020/07/02 17:51 UTC NOAA

Chico Municipal , CA, United States (KCIC) 39-48N 121-51W
Jul 02, 2020 - 01:51 PM EDT / 2020.07.02 1751 UTC
Wind: from the S (190 degrees) at 6 MPH (5 KT):0
Visibility: 80 mile(s):0
Sky conditions: mostly clear
Temperature: 77 F (25 C)
Dew Point: 53 F (12 C)
Relative Humidity: 44%
Pressure (altimeter): 29.84 in. Hg (1010 hPa)
ob: KCIC 021751Z 19005KT 80SM FEW100 25/12 A2984
cycle: 18

Station Type Date Time Source
KCIC TAF UTC NOAA

Error!

Example: see airport list